Main page
METAR-TAF:

METAR-TAF

Airports :

Capo Mele

Andora, Italy

latitude: 43-57N, longitude: 008-10E, elevation: 220 m

Current weather observation

The report was made 20 minutes ago, at 23:55 UTC
Wind 2 kt from the Southwest
Temperature 8°C
Humidity 81%
Pressure 1006 hPa
Visibility 10 km or more
Few clouds at a height of 2000 ft

METAR: LIMU 172355Z 22002KT 9999 FEW020 08/05 Q1006 RMK FEW QUK / QUL / VIS MAR 40 KM VIS MIN 9999

Time: 01:15 (00:15 UTC)


TAF: missing

Weather observations and forecasts of more than 4000 airports (METAR and TAF reports).

The available stations are represented by yellow and red dots on the map.

Hover mouse over dot to see the name of the station.

Then click to see weather observations and forecasts.

To change the map : click on the green buttons with a black cross to zoom in, on the green button with a dash to zoom out, or on the green arrows for adjacent maps.


METAR-TAF: